createdAt,value
2022-10-24T00:00:09.799Z,8.70
2022-10-24T00:02:37.710Z,9.15
2022-10-24T00:05:06.222Z,11.70
2022-10-24T00:07:34.024Z,9.82
2022-10-24T00:10:01.804Z,15.20
2022-10-24T00:12:29.693Z,7.07
2022-10-24T00:14:58.927Z,8.95
2022-10-24T00:17:26.754Z,6.93
2022-10-24T00:19:54.727Z,7.88
2022-10-24T00:22:22.547Z,7.00
2022-10-24T00:24:50.383Z,8.00
2022-10-24T00:27:18.221Z,8.48
2022-10-24T00:29:46.093Z,14.35
2022-10-24T00:32:15.430Z,7.80
2022-10-24T00:34:43.224Z,13.38
2022-10-24T00:37:11.078Z,7.90
2022-10-24T00:39:38.907Z,9.77
2022-10-24T00:42:06.905Z,7.57
2022-10-24T00:44:38.344Z,9.43
2022-10-24T00:47:09.801Z,7.85
2022-10-24T00:49:49.326Z,6.20
2022-10-24T00:52:21.536Z,10.55
2022-10-24T00:57:22.119Z,7.55
2022-10-24T00:59:55.679Z,9.52
2022-10-24T01:02:23.576Z,11.55
2022-10-24T01:04:54.597Z,8.02
2022-10-24T01:07:39.208Z,10.05
2022-10-24T01:10:25.068Z,11.63
2022-10-24T01:13:00.934Z,9.48
2022-10-24T01:15:37.502Z,11.15
2022-10-24T01:18:11.593Z,5.22
2022-10-24T01:20:58.102Z,7.50
2022-10-24T01:23:57.101Z,7.10
2022-10-24T01:26:59.292Z,6.55
2022-10-24T01:29:49.473Z,10.07
2022-10-24T01:32:24.123Z,11.27
2022-10-24T01:35:00.676Z,9.60
2022-10-24T01:37:34.948Z,10.10
2022-10-24T01:40:12.167Z,9.13
2022-10-24T01:42:41.410Z,7.30
2022-10-24T01:45:14.522Z,7.57
2022-10-24T01:47:47.403Z,6.72
2022-10-24T01:50:16.977Z,10.52
2022-10-24T01:52:47.445Z,6.45
2022-10-24T01:55:15.433Z,8.80
2022-10-24T01:57:43.484Z,8.07
2022-10-24T02:00:18.836Z,10.40
2022-10-24T02:02:49.954Z,9.27
2022-10-24T02:05:22.516Z,9.18
2022-10-24T02:07:54.969Z,6.38
2022-10-24T02:10:27.132Z,6.28
2022-10-24T02:13:00.483Z,9.57
2022-10-24T02:15:32.634Z,7.57
2022-10-24T02:18:01.537Z,11.10
2022-10-24T02:20:34.509Z,7.15
2022-10-24T02:23:07.734Z,9.60
2022-10-24T02:25:38.039Z,7.25
2022-10-24T02:28:09.727Z,4.07
2022-10-24T02:30:44.733Z,6.18
2022-10-24T02:33:13.565Z,6.38
2022-10-24T02:35:43.133Z,4.88
2022-10-24T02:38:16.665Z,7.72
2022-10-24T02:40:47.040Z,7.00
2022-10-24T02:43:16.892Z,4.38
2022-10-24T02:45:46.682Z,8.45
2022-10-24T02:48:17.575Z,6.80
2022-10-24T02:50:45.682Z,9.23
2022-10-24T02:53:15.260Z,5.75
2022-10-24T02:55:43.338Z,6.60
2022-10-24T02:58:11.174Z,4.38
2022-10-24T03:00:39.016Z,7.05
2022-10-24T03:03:08.358Z,4.43
2022-10-24T03:05:36.244Z,6.28
2022-10-24T03:08:04.136Z,5.60
2022-10-24T03:10:31.951Z,5.57
2022-10-24T03:13:00.699Z,8.15
2022-10-24T03:15:28.530Z,6.53
2022-10-24T03:17:56.341Z,4.60
2022-10-24T03:20:25.892Z,4.28
2022-10-24T03:22:53.764Z,4.68
2022-10-24T03:25:21.569Z,3.40
2022-10-24T03:27:49.426Z,3.30
2022-10-24T03:30:17.273Z,6.18
2022-10-24T03:32:45.309Z,5.30
2022-10-24T03:35:14.267Z,4.00
2022-10-24T03:37:44.125Z,5.82
2022-10-24T03:40:12.577Z,3.63
2022-10-24T03:42:40.749Z,3.63
2022-10-24T03:45:09.831Z,4.85
2022-10-24T03:47:37.680Z,4.57
2022-10-24T03:50:06.339Z,6.75
2022-10-24T03:52:34.225Z,5.53
2022-10-24T03:55:03.490Z,3.42
2022-10-24T03:57:31.307Z,3.92
2022-10-24T03:59:59.100Z,3.45
2022-10-24T04:02:26.963Z,7.57
2022-10-24T04:04:54.762Z,5.60
2022-10-24T04:07:22.559Z,3.17
2022-10-24T04:09:50.778Z,4.90
2022-10-24T04:12:19.930Z,3.00
2022-10-24T04:14:47.849Z,3.53
2022-10-24T04:17:15.664Z,5.88
2022-10-24T04:19:43.855Z,5.97
2022-10-24T04:22:11.741Z,5.80
2022-10-24T04:24:39.590Z,4.90
2022-10-24T04:27:07.477Z,4.38
2022-10-24T04:29:37.089Z,3.85
2022-10-24T04:32:05.242Z,8.40
2022-10-24T04:34:35.822Z,5.40
2022-10-24T04:37:03.844Z,3.17
2022-10-24T04:39:31.662Z,3.90
2022-10-24T04:41:59.529Z,3.13
2022-10-24T04:44:27.415Z,6.45
2022-10-24T04:46:56.645Z,5.35
2022-10-24T04:49:24.442Z,7.20
2022-10-24T04:51:52.244Z,8.80
2022-10-24T04:54:20.066Z,5.47
2022-10-24T04:56:47.892Z,6.30
2022-10-24T04:59:15.700Z,8.52
2022-10-24T05:01:43.688Z,5.15
2022-10-24T05:04:13.642Z,5.97
2022-10-24T05:06:44.209Z,3.97
2022-10-24T05:09:12.957Z,5.63
2022-10-24T05:11:40.862Z,4.65
2022-10-24T05:14:08.709Z,5.60
2022-10-24T05:16:36.535Z,3.40
2022-10-24T05:19:04.366Z,9.20
2022-10-24T05:21:34.072Z,6.00
2022-10-24T05:24:01.896Z,5.47
2022-10-24T05:26:29.699Z,5.00
2022-10-24T05:28:57.575Z,5.28
2022-10-24T05:31:25.453Z,7.88
2022-10-24T05:33:53.346Z,8.48
2022-10-24T05:36:21.120Z,7.07
2022-10-24T05:38:50.265Z,10.32
2022-10-24T05:41:18.048Z,17.50
2022-10-24T05:43:45.862Z,8.82
2022-10-24T05:46:13.651Z,5.38
2022-10-24T05:48:41.462Z,8.98
2022-10-24T05:51:09.248Z,7.25
2022-10-24T05:53:37.084Z,4.95
2022-10-24T05:56:07.035Z,9.00
2022-10-24T05:58:35.198Z,6.75
2022-10-24T06:01:03.126Z,4.68
2022-10-24T06:03:30.959Z,10.35
2022-10-24T06:05:58.806Z,8.35
2022-10-24T06:08:26.625Z,11.45
2022-10-24T06:10:54.528Z,6.30
2022-10-24T06:13:23.660Z,6.63
2022-10-24T06:15:51.469Z,4.85
2022-10-24T06:18:19.315Z,5.10
2022-10-24T06:20:47.092Z,5.97
2022-10-24T06:23:14.901Z,7.53
2022-10-24T06:25:43.183Z,7.82
2022-10-24T06:28:12.342Z,8.80
2022-10-24T06:30:42.461Z,6.45
2022-10-24T06:33:10.276Z,6.70
2022-10-24T06:35:38.077Z,4.18
2022-10-24T06:38:05.942Z,6.32
2022-10-24T06:40:33.723Z,5.20
2022-10-24T06:43:01.546Z,7.55
2022-10-24T06:45:29.451Z,7.82
2022-10-24T06:47:58.626Z,8.02
2022-10-24T06:50:26.523Z,5.43
2022-10-24T06:52:54.325Z,9.95
2022-10-24T06:55:22.302Z,7.60
2022-10-24T06:57:50.096Z,6.85
2022-10-24T07:00:18.506Z,4.00
2022-10-24T07:02:46.707Z,9.35
2022-10-24T07:05:16.136Z,5.68
2022-10-24T07:07:45.261Z,3.42
2022-10-24T07:10:15.255Z,3.42
2022-10-24T07:12:44.359Z,4.43
2022-10-24T07:15:13.543Z,5.38
2022-10-24T07:17:41.749Z,4.20
2022-10-24T07:20:11.158Z,4.43
2022-10-24T07:22:40.606Z,2.72
2022-10-24T07:25:09.466Z,9.00
2022-10-24T07:27:37.261Z,4.07
2022-10-24T07:30:06.073Z,7.93
2022-10-24T07:32:34.113Z,6.35
2022-10-24T07:35:02.998Z,5.97
2022-10-24T07:37:30.773Z,5.10
2022-10-24T07:39:59.917Z,4.43
2022-10-24T07:42:27.729Z,5.18
2022-10-24T07:44:55.545Z,6.63
2022-10-24T07:47:23.353Z,8.35
2022-10-24T07:49:51.377Z,7.35
2022-10-24T07:52:19.171Z,8.00
2022-10-24T07:54:46.952Z,6.57
2022-10-24T07:57:16.160Z,8.63
2022-10-24T07:59:43.952Z,7.25
2022-10-24T08:02:12.590Z,3.75
2022-10-24T08:04:40.913Z,2.95
2022-10-24T08:07:13.277Z,6.53
2022-10-24T08:09:42.719Z,7.63
2022-10-24T08:12:10.991Z,6.95
2022-10-24T08:14:41.425Z,5.18
2022-10-24T08:17:09.346Z,5.85
2022-10-24T08:19:43.695Z,6.22
2022-10-24T08:22:12.971Z,5.28
2022-10-24T08:24:40.829Z,4.18
2022-10-24T08:27:08.810Z,2.78
2022-10-24T08:29:36.666Z,6.30
2022-10-24T08:32:07.281Z,5.28
2022-10-24T08:34:35.560Z,3.70
2022-10-24T08:37:04.402Z,4.10
2022-10-24T08:39:32.290Z,5.93
2022-10-24T08:42:03.646Z,3.97
2022-10-24T08:44:35.613Z,7.93
2022-10-24T08:47:09.902Z,7.93
2022-10-24T08:49:45.243Z,8.52
2022-10-24T08:52:23.008Z,5.93
2022-10-24T08:54:52.891Z,4.63
2022-10-24T08:57:24.391Z,5.75
2022-10-24T08:59:54.578Z,2.63
2022-10-24T09:02:27.009Z,7.30
2022-10-24T09:04:57.615Z,8.50
2022-10-24T09:07:25.942Z,5.15
2022-10-24T09:10:08.841Z,5.68
2022-10-24T09:12:37.317Z,5.68
2022-10-24T09:15:15.314Z,7.57
2022-10-24T09:17:45.986Z,3.22
2022-10-24T09:20:25.477Z,3.00
2022-10-24T09:22:54.350Z,4.45
2022-10-24T09:25:24.275Z,4.75
2022-10-24T09:27:52.683Z,5.47
2022-10-24T09:30:22.488Z,4.40
2022-10-24T09:32:52.200Z,6.97
2022-10-24T09:35:22.665Z,6.63
2022-10-24T09:37:52.208Z,7.00
2022-10-24T09:40:23.452Z,5.10
2022-10-24T09:42:59.578Z,4.95
2022-10-24T09:45:35.910Z,4.97
2022-10-24T09:48:16.138Z,6.85
2022-10-24T09:50:45.520Z,6.68
2022-10-24T09:53:24.620Z,6.15
2022-10-24T09:55:54.936Z,8.60
2022-10-24T09:58:29.806Z,4.05
2022-10-24T10:01:00.309Z,5.35
2022-10-24T10:03:29.776Z,9.90
2022-10-24T10:06:00.218Z,7.25
2022-10-24T10:08:30.820Z,6.80
2022-10-24T10:11:01.622Z,9.15
2022-10-24T10:13:30.577Z,10.73
2022-10-24T10:16:01.824Z,5.75
2022-10-24T10:18:48.476Z,5.47
2022-10-24T10:21:18.514Z,6.72
2022-10-24T10:23:48.900Z,7.45
2022-10-24T10:26:28.541Z,6.90
2022-10-24T10:29:00.153Z,7.45
2022-10-24T10:31:35.585Z,5.85
2022-10-24T10:34:23.065Z,7.63
2022-10-24T10:37:28.057Z,6.88
2022-10-24T10:40:21.482Z,7.60
2022-10-24T10:43:00.068Z,7.68
2022-10-24T10:45:36.552Z,6.85
2022-10-24T10:48:18.880Z,6.97
2022-10-24T10:50:52.998Z,7.80
2022-10-24T10:53:30.976Z,11.02
2022-10-24T10:56:06.636Z,6.85
2022-10-24T10:58:42.239Z,3.42
2022-10-24T11:01:17.573Z,7.03
2022-10-24T11:03:51.641Z,8.23
2022-10-24T11:06:37.670Z,5.22
2022-10-24T11:09:26.218Z,8.23
2022-10-24T11:11:58.769Z,4.00
2022-10-24T11:14:31.539Z,4.03
2022-10-24T11:17:05.954Z,8.10
2022-10-24T11:19:42.444Z,10.85
2022-10-24T11:22:20.233Z,8.82
2022-10-24T11:24:55.019Z,6.78
2022-10-24T11:27:27.258Z,6.95
2022-10-24T11:32:29.239Z,8.95
2022-10-24T11:35:01.506Z,6.13
2022-10-24T11:40:05.946Z,6.95
2022-10-24T11:42:43.270Z,7.13
2022-10-24T11:45:14.493Z,6.72
2022-10-24T11:48:00.720Z,5.88
2022-10-24T11:50:34.126Z,5.00
2022-10-24T11:53:19.213Z,8.00
2022-10-24T11:55:51.166Z,5.53
2022-10-24T11:58:22.412Z,7.53
2022-10-24T12:01:23.483Z,9.20
2022-10-24T12:04:16.427Z,7.85
2022-10-24T12:07:02.456Z,5.20
2022-10-24T12:09:50.926Z,5.78
2022-10-24T12:12:39.745Z,5.72
2022-10-24T12:15:18.980Z,7.47
2022-10-24T12:17:58.566Z,6.50
2022-10-24T12:20:27.815Z,9.98
2022-10-24T12:22:56.929Z,4.75
2022-10-24T12:25:32.256Z,6.72
2022-10-24T12:28:02.249Z,7.60
2022-10-24T12:30:33.084Z,5.53
2022-10-24T12:33:10.589Z,4.65
2022-10-24T12:35:52.870Z,7.40
2022-10-24T12:39:05.679Z,4.70
2022-10-24T12:41:40.515Z,4.13
2022-10-24T12:44:46.201Z,5.40
2022-10-24T12:47:38.525Z,4.78
2022-10-24T12:50:43.759Z,5.10
2022-10-24T12:53:34.177Z,7.43
2022-10-24T12:58:57.998Z,4.18
2022-10-24T13:01:33.152Z,5.35
2022-10-24T13:04:34.665Z,6.68
2022-10-24T13:07:37.991Z,4.97
2022-10-24T13:10:34.348Z,9.15
2022-10-24T13:13:19.157Z,7.50
2022-10-24T13:15:55.433Z,5.95
2022-10-24T13:18:36.873Z,6.97
2022-10-24T13:21:15.205Z,6.70
2022-10-24T13:23:45.868Z,6.43
2022-10-24T13:26:37.482Z,6.03
2022-10-24T13:29:05.642Z,4.30
2022-10-24T13:31:44.052Z,5.75
2022-10-24T13:34:38.068Z,6.90
2022-10-24T13:37:13.470Z,8.10
2022-10-24T13:39:47.014Z,9.73
2022-10-24T13:42:26.379Z,5.15
2022-10-24T13:44:58.529Z,4.03
2022-10-24T13:47:32.468Z,5.90
2022-10-24T13:50:04.923Z,2.47
2022-10-24T13:52:39.537Z,5.55
2022-10-24T13:55:19.938Z,6.97
2022-10-24T13:57:53.914Z,7.85
2022-10-24T14:00:24.597Z,4.85
2022-10-24T14:02:55.358Z,5.32
2022-10-24T14:05:35.942Z,3.00
2022-10-24T14:08:04.065Z,6.78
2022-10-24T14:10:32.588Z,4.70
2022-10-24T14:13:01.265Z,3.70
2022-10-24T14:15:32.441Z,6.10
2022-10-24T14:18:04.042Z,2.67
2022-10-24T14:20:34.375Z,10.88
2022-10-24T14:23:02.793Z,8.43
2022-10-24T14:25:37.025Z,8.07
2022-10-24T14:28:14.957Z,5.93
2022-10-24T14:30:53.953Z,3.25
2022-10-24T14:33:25.597Z,8.48
2022-10-24T14:35:57.720Z,5.78
2022-10-24T14:38:27.918Z,4.30
2022-10-24T14:41:08.426Z,6.68
2022-10-24T14:43:39.782Z,3.85
2022-10-24T14:46:34.564Z,5.85
2022-10-24T14:49:21.583Z,2.78
2022-10-24T14:54:26.899Z,5.38
2022-10-24T14:56:55.708Z,5.80
2022-10-24T14:59:27.098Z,4.05
2022-10-24T15:01:57.069Z,5.33
2022-10-24T15:04:38.179Z,4.13
2022-10-24T15:07:16.307Z,3.97
2022-10-24T15:09:55.420Z,4.47
2022-10-24T15:12:33.953Z,5.07
2022-10-24T15:15:22.996Z,5.40
2022-10-24T15:17:52.246Z,6.32
2022-10-24T15:20:24.166Z,3.60
2022-10-24T15:22:56.137Z,3.28
2022-10-24T15:25:28.819Z,3.88
2022-10-24T15:28:00.102Z,2.42
2022-10-24T15:30:30.867Z,3.13
2022-10-24T15:33:00.625Z,3.83
2022-10-24T15:35:31.444Z,5.32
2022-10-24T15:38:01.988Z,2.58
2022-10-24T15:40:32.081Z,4.47
2022-10-24T15:43:00.060Z,5.35
2022-10-24T15:45:28.328Z,3.35
2022-10-24T15:47:56.150Z,2.85
2022-10-24T15:50:25.008Z,7.63
2022-10-24T15:52:57.053Z,1.60
2022-10-24T15:55:27.625Z,3.03
2022-10-24T15:57:57.010Z,2.70
2022-10-24T16:00:25.945Z,3.97
2022-10-24T16:02:55.912Z,2.38
2022-10-24T16:05:26.036Z,1.55
2022-10-24T16:07:55.174Z,1.30
2022-10-24T16:10:24.073Z,0.95
2022-10-24T16:12:52.390Z,1.05
2022-10-24T16:15:22.855Z,1.20
2022-10-24T16:17:50.849Z,1.58
2022-10-24T16:20:19.238Z,3.25
2022-10-24T16:22:48.017Z,1.63
2022-10-24T16:25:20.267Z,1.55
2022-10-24T16:30:18.836Z,1.10
2022-10-24T16:32:47.443Z,2.80
2022-10-24T16:35:19.486Z,1.90
2022-10-24T16:37:47.348Z,1.13
2022-10-24T16:40:15.161Z,2.95
2022-10-24T16:42:44.794Z,1.35
2022-10-24T16:45:13.028Z,1.35
2022-10-24T16:47:40.828Z,1.60
2022-10-24T16:50:09.534Z,1.33
2022-10-24T16:52:37.317Z,1.38
2022-10-24T16:55:05.454Z,2.47
2022-10-24T16:57:33.269Z,1.02
2022-10-24T17:00:02.471Z,1.63
2022-10-24T17:02:30.303Z,3.22
2022-10-24T17:04:58.122Z,5.82
2022-10-24T17:07:25.946Z,1.30
2022-10-24T17:09:53.769Z,2.33
2022-10-24T17:12:21.665Z,2.65
2022-10-24T17:14:49.657Z,1.67
2022-10-24T17:17:18.809Z,1.88
2022-10-24T17:19:48.240Z,2.78
2022-10-24T17:22:16.505Z,1.83
2022-10-24T17:24:44.738Z,1.83
2022-10-24T17:27:13.476Z,3.03
2022-10-24T17:29:42.191Z,3.47
2022-10-24T17:32:12.725Z,2.72
2022-10-24T17:34:43.257Z,2.22
2022-10-24T17:37:19.927Z,3.65
2022-10-24T17:39:51.106Z,2.83
2022-10-24T17:42:19.779Z,3.30
2022-10-24T17:44:48.445Z,1.48
2022-10-24T17:47:16.881Z,2.90
2022-10-24T17:49:46.341Z,2.38
2022-10-24T17:52:18.512Z,1.50
2022-10-24T17:54:46.346Z,1.30
2022-10-24T17:57:14.187Z,2.50
2022-10-24T17:59:42.054Z,2.83
2022-10-24T18:02:13.652Z,1.20
2022-10-24T18:04:42.892Z,1.88
2022-10-24T18:07:12.211Z,0.88
2022-10-24T18:09:40.144Z,1.25
2022-10-24T18:12:08.250Z,5.15
2022-10-24T18:14:37.470Z,2.78
2022-10-24T18:17:05.319Z,1.90
2022-10-24T18:19:33.215Z,1.73
2022-10-24T18:22:01.028Z,1.50
2022-10-24T18:24:30.182Z,3.80
2022-10-24T18:26:57.985Z,2.50
2022-10-24T18:29:25.992Z,1.00
2022-10-24T18:31:53.810Z,1.42
2022-10-24T18:34:21.610Z,1.40
2022-10-24T18:36:49.456Z,1.45
2022-10-24T18:39:17.322Z,1.90
2022-10-24T18:41:49.210Z,1.60
2022-10-24T18:44:27.665Z,1.10
2022-10-24T18:46:57.922Z,1.05
2022-10-24T18:49:26.358Z,3.17
2022-10-24T18:52:02.740Z,2.20
2022-10-24T18:54:31.000Z,1.58
2022-10-24T18:57:00.782Z,2.40
2022-10-24T18:59:30.745Z,1.15
2022-10-24T19:02:12.113Z,1.40
2022-10-24T19:04:42.920Z,3.42
2022-10-24T19:07:11.676Z,7.20
2022-10-24T19:09:39.692Z,2.83
2022-10-24T19:12:10.219Z,3.55
2022-10-24T19:14:38.465Z,2.40
2022-10-24T19:17:07.206Z,1.40
2022-10-24T19:19:35.775Z,1.52
2022-10-24T19:22:03.700Z,2.92
2022-10-24T19:24:31.506Z,1.45
2022-10-24T19:26:59.349Z,1.40
2022-10-24T19:29:28.614Z,2.63
2022-10-24T19:31:56.454Z,4.35
2022-10-24T19:34:24.258Z,3.28
2022-10-24T19:36:52.082Z,2.38
2022-10-24T19:39:19.921Z,1.30
2022-10-24T19:41:47.736Z,1.10
2022-10-24T19:44:15.807Z,1.73
2022-10-24T19:46:44.936Z,4.55
2022-10-24T19:49:12.767Z,1.63
2022-10-24T19:51:40.568Z,1.92
2022-10-24T19:54:08.394Z,1.83
2022-10-24T19:56:36.246Z,1.73
2022-10-24T19:59:04.035Z,3.33
2022-10-24T20:01:32.583Z,1.50
2022-10-24T20:04:02.136Z,1.90
2022-10-24T20:06:29.932Z,5.45
2022-10-24T20:08:57.945Z,3.67
2022-10-24T20:11:25.806Z,1.42
2022-10-24T20:13:53.622Z,1.70
2022-10-24T20:16:21.464Z,2.70
2022-10-24T20:18:49.503Z,1.70
2022-10-24T20:21:20.138Z,1.83
2022-10-24T20:23:48.726Z,1.27
2022-10-24T20:26:18.527Z,2.35
2022-10-24T20:28:47.961Z,2.55
2022-10-24T20:31:21.061Z,1.98
2022-10-24T20:33:49.129Z,4.00
2022-10-24T20:36:18.444Z,2.03
2022-10-24T20:38:46.317Z,2.67
2022-10-24T20:41:14.198Z,2.58
2022-10-24T20:43:42.027Z,2.10
2022-10-24T20:46:09.922Z,1.27
2022-10-24T20:48:37.773Z,2.38
2022-10-24T20:51:10.484Z,3.25
2022-10-24T20:53:40.588Z,1.58
2022-10-24T20:56:10.247Z,1.20
2022-10-24T20:58:39.781Z,4.13
2022-10-24T21:01:09.415Z,1.58
2022-10-24T21:03:37.918Z,1.55
2022-10-24T21:06:07.669Z,1.42
2022-10-24T21:08:35.465Z,2.47
2022-10-24T21:11:08.013Z,2.70
2022-10-24T21:13:35.813Z,1.85
2022-10-24T21:16:04.039Z,2.58
2022-10-24T21:18:32.384Z,1.33
2022-10-24T21:21:00.415Z,3.22
2022-10-24T21:23:28.288Z,1.05
2022-10-24T21:26:02.912Z,1.25
2022-10-24T21:28:32.127Z,2.20
2022-10-24T21:31:05.213Z,2.80
2022-10-24T21:33:33.367Z,2.55
2022-10-24T21:36:05.930Z,2.28
2022-10-24T21:38:33.760Z,1.98
2022-10-24T21:41:02.288Z,2.75
2022-10-24T21:43:33.982Z,3.88
2022-10-24T21:46:06.641Z,1.67
2022-10-24T21:48:34.998Z,4.63
2022-10-24T21:51:04.531Z,1.20
2022-10-24T21:53:32.359Z,2.72
2022-10-24T21:56:03.848Z,1.73
2022-10-24T21:58:33.301Z,2.30
2022-10-24T22:01:01.241Z,1.70
2022-10-24T22:03:29.102Z,3.38
2022-10-24T22:05:57.753Z,2.30
2022-10-24T22:08:25.659Z,1.17
2022-10-24T22:10:58.166Z,1.30
2022-10-24T22:13:26.017Z,1.80
2022-10-24T22:15:55.523Z,3.88
2022-10-24T22:18:23.665Z,3.17
2022-10-24T22:20:51.873Z,4.07
2022-10-24T22:23:20.317Z,4.20
2022-10-24T22:25:48.262Z,2.20
2022-10-24T22:28:16.674Z,1.88
2022-10-24T22:30:46.859Z,4.47
2022-10-24T22:33:21.693Z,1.45
2022-10-24T22:35:57.570Z,1.67
2022-10-24T22:38:25.683Z,1.98
2022-10-24T22:40:54.012Z,3.45
2022-10-24T22:43:22.296Z,1.42
2022-10-24T22:46:01.519Z,2.60
2022-10-24T22:48:34.832Z,1.63
2022-10-24T22:51:02.894Z,1.70
2022-10-24T22:53:32.222Z,1.90
2022-10-24T22:56:11.081Z,2.58
2022-10-24T22:58:39.463Z,2.17
2022-10-24T23:01:18.058Z,2.75
2022-10-24T23:04:00.277Z,4.47
2022-10-24T23:06:35.344Z,2.15
2022-10-24T23:09:03.155Z,1.73
2022-10-24T23:11:31.481Z,1.70
2022-10-24T23:13:59.714Z,2.65
2022-10-24T23:16:34.586Z,1.73
2022-10-24T23:19:07.034Z,1.77
2022-10-24T23:21:38.835Z,2.10
2022-10-24T23:24:13.849Z,4.43
2022-10-24T23:26:47.087Z,2.22
2022-10-24T23:29:24.874Z,2.17
2022-10-24T23:31:53.084Z,1.20
2022-10-24T23:34:22.960Z,3.10
2022-10-24T23:36:51.395Z,3.22
2022-10-24T23:41:49.229Z,1.98
2022-10-24T23:44:17.539Z,1.48
2022-10-24T23:46:48.784Z,2.30
2022-10-24T23:49:28.053Z,2.72
2022-10-24T23:52:03.633Z,3.72
2022-10-24T23:54:33.268Z,1.60
2022-10-24T23:57:01.940Z,1.13
2022-10-24T23:59:29.795Z,2.33
